createdAt,value
2023-02-07T00:00:19.084Z,103921.03
2023-02-07T00:01:51.519Z,103922.81
2023-02-07T00:03:23.890Z,103918.44
2023-02-07T00:04:56.082Z,103927.09
2023-02-07T00:06:31.275Z,103929.78
2023-02-07T00:08:06.150Z,103927.88
2023-02-07T00:09:38.249Z,103930.44
2023-02-07T00:11:13.436Z,103923.38
2023-02-07T00:12:45.694Z,103926.72
2023-02-07T00:16:29.297Z,103907.41
2023-02-07T00:18:01.584Z,103914.38
2023-02-07T00:19:33.722Z,103923.00
2023-02-07T00:21:12.258Z,103924.69
2023-02-07T00:22:45.463Z,103926.47
2023-02-07T00:24:17.497Z,103914.47
2023-02-07T00:25:49.596Z,103915.25
2023-02-07T00:27:21.622Z,103916.16
2023-02-07T00:28:55.075Z,103917.84
2023-02-07T00:30:28.264Z,103915.94
2023-02-07T00:32:01.072Z,103918.16
2023-02-07T00:33:34.743Z,103914.53
2023-02-07T00:35:07.553Z,103928.88
2023-02-07T00:36:39.677Z,103922.16
2023-02-07T00:38:11.966Z,103917.00
2023-02-07T00:39:52.783Z,103900.38
2023-02-07T00:41:26.598Z,103898.97
2023-02-07T00:42:58.787Z,103911.63
2023-02-07T00:44:32.084Z,103917.56
2023-02-07T00:46:05.771Z,103925.84
2023-02-07T00:47:38.049Z,103931.25
2023-02-07T00:49:11.416Z,103920.81
2023-02-07T00:50:43.736Z,103912.19
2023-02-07T00:54:35.573Z,103915.53
2023-02-07T00:56:10.072Z,103921.47
2023-02-07T00:57:45.314Z,103914.16
2023-02-07T00:59:17.541Z,103906.53
2023-02-07T01:00:50.154Z,103908.22
2023-02-07T01:02:25.362Z,103907.19
2023-02-07T01:04:10.597Z,103913.25
2023-02-07T01:05:43.503Z,103917.25
2023-02-07T01:07:19.224Z,103919.72
2023-02-07T01:08:51.598Z,103922.16
2023-02-07T01:10:25.082Z,103907.34
2023-02-07T01:11:57.160Z,103910.59
2023-02-07T01:13:30.624Z,103911.38
2023-02-07T01:15:04.433Z,103911.13
2023-02-07T01:16:36.869Z,103902.25
2023-02-07T01:18:09.213Z,103901.47
2023-02-07T01:19:41.383Z,103900.44
2023-02-07T01:21:18.767Z,103903.03
2023-02-07T01:22:50.873Z,103909.97
2023-02-07T01:24:22.949Z,103911.53
2023-02-07T01:25:54.938Z,103909.97
2023-02-07T01:27:28.192Z,103909.97
2023-02-07T01:29:00.229Z,103904.81
2023-02-07T01:30:32.381Z,103904.16
2023-02-07T01:32:04.862Z,103913.34
2023-02-07T01:33:37.624Z,103919.63
2023-02-07T01:37:40.885Z,103916.03
2023-02-07T01:39:16.617Z,103910.75
2023-02-07T01:41:00.089Z,103911.78
2023-02-07T01:42:59.414Z,103911.78
2023-02-07T01:44:41.274Z,103919.28
2023-02-07T01:46:20.607Z,103920.16
2023-02-07T01:47:58.861Z,103915.66
2023-02-07T01:49:35.152Z,103913.88
2023-02-07T01:51:08.602Z,103919.81
2023-02-07T01:52:43.867Z,103913.88
2023-02-07T01:54:17.020Z,103916.19
2023-02-07T01:55:52.700Z,103912.34
2023-02-07T01:57:28.403Z,103917.50
2023-02-07T01:59:02.104Z,103919.19
2023-02-07T02:00:38.541Z,103912.34
2023-02-07T02:02:16.985Z,103914.41
2023-02-07T02:04:18.259Z,103915.06
2023-02-07T02:05:54.455Z,103909.78
2023-02-07T02:07:27.653Z,103909.66
2023-02-07T02:09:01.245Z,103903.56
2023-02-07T02:11:00.372Z,103906.31
2023-02-07T02:12:55.879Z,103910.69
2023-02-07T02:14:40.776Z,103914.94
2023-02-07T02:16:36.105Z,103917.38
2023-02-07T02:18:24.169Z,103929.75
2023-02-07T02:20:23.979Z,103927.69
2023-02-07T02:22:33.080Z,103926.91
2023-02-07T02:24:39.263Z,103929.38
2023-02-07T02:26:29.870Z,103923.97
2023-02-07T02:28:12.104Z,103922.94
2023-02-07T02:30:00.375Z,103925.91
2023-02-07T02:32:09.270Z,103928.22
2023-02-07T02:34:07.607Z,103926.28
2023-02-07T02:36:02.437Z,103921.16
2023-02-07T02:37:50.094Z,103920.13
2023-02-07T02:39:33.250Z,103929.66
2023-02-07T02:41:19.345Z,103931.44
2023-02-07T02:42:57.710Z,103926.28
2023-02-07T02:44:40.719Z,103918.94
2023-02-07T02:46:20.123Z,103916.13
2023-02-07T02:47:56.340Z,103923.59
2023-02-07T02:49:32.431Z,103918.31
2023-02-07T02:51:05.268Z,103911.50
2023-02-07T02:52:50.264Z,103913.03
2023-02-07T02:54:40.091Z,103919.09
2023-02-07T02:56:45.603Z,103925.03
2023-02-07T02:58:55.188Z,103929.16
2023-02-07T03:00:43.685Z,103918.59
2023-02-07T03:02:27.414Z,103922.97
2023-02-07T03:04:47.536Z,103924.41
2023-02-07T03:06:56.328Z,103928.66
2023-02-07T03:09:33.924Z,103925.94
2023-02-07T03:12:25.038Z,103914.25
2023-02-07T03:19:54.661Z,103909.72
2023-02-07T03:21:30.932Z,103909.47
2023-02-07T03:25:43.454Z,103915.03
2023-02-07T03:27:32.041Z,103906.53
2023-02-07T03:29:58.052Z,103899.03
2023-02-07T03:56:09.567Z,103913.88
2023-02-07T03:57:41.948Z,103915.28
2023-02-07T03:59:17.327Z,103916.97
2023-02-07T04:00:52.928Z,103918.88
2023-02-07T04:02:25.384Z,103920.44
2023-02-07T04:10:11.260Z,103908.72
2023-02-07T04:11:43.593Z,103911.03
2023-02-07T04:13:20.352Z,103908.47
2023-02-07T04:14:55.981Z,103902.41
2023-02-07T04:16:28.580Z,103899.56
2023-02-07T04:18:05.388Z,103909.75
2023-02-07T04:19:40.255Z,103900.09
2023-02-07T04:21:16.105Z,103900.69
2023-02-07T04:23:01.385Z,103900.06
2023-02-07T04:24:36.139Z,103903.78
2023-02-07T04:26:21.988Z,103904.28
2023-02-07T04:28:03.801Z,103901.72
2023-02-07T04:29:37.262Z,103903.78
2023-02-07T04:31:15.988Z,103906.22
2023-02-07T04:32:53.258Z,103910.97
2023-02-07T04:34:31.098Z,103908.25
2023-02-07T04:36:35.189Z,103907.09
2023-02-07T04:38:07.446Z,103901.56
2023-02-07T04:39:39.674Z,103896.28
2023-02-07T04:41:14.194Z,103892.03
2023-02-07T05:47:33.786Z,103913.22
2023-02-07T05:49:19.894Z,103909.00
2023-02-07T09:46:38.615Z,103988.75
2023-02-07T09:48:22.337Z,103978.41
2023-02-07T09:50:05.280Z,103982.56
2023-02-07T09:51:40.493Z,103979.19
2023-02-07T09:53:25.494Z,103976.28
2023-02-07T09:54:58.972Z,103980.66
2023-02-07T09:56:34.798Z,103981.56
2023-02-07T09:58:10.249Z,103979.47
2023-02-07T10:00:03.010Z,103980.69
2023-02-07T10:01:41.781Z,103976.53
2023-02-07T10:03:24.811Z,103979.00
2023-02-07T10:05:03.564Z,103980.88
2023-02-07T10:06:41.778Z,103974.44
2023-02-07T10:08:19.150Z,103970.25
2023-02-07T10:09:53.688Z,103972.78
2023-02-07T10:11:49.999Z,103966.00
2023-02-07T10:13:41.090Z,103969.81
2023-02-07T10:15:48.502Z,103958.97
2023-02-07T10:17:50.807Z,103963.84
2023-02-07T10:19:36.731Z,103968.13
2023-02-07T10:23:36.188Z,103969.34
2023-02-07T10:25:38.670Z,103969.97
2023-02-07T10:27:13.878Z,103965.91
2023-02-07T10:29:14.275Z,103967.84
2023-02-07T10:31:01.398Z,103967.06
2023-02-07T10:35:20.089Z,103967.50
2023-02-07T10:36:53.983Z,103969.03
2023-02-07T10:38:52.140Z,103966.84
2023-02-07T10:40:51.540Z,103959.31
2023-02-07T10:42:24.582Z,103962.91
2023-02-07T10:43:59.348Z,103956.47
2023-02-07T10:45:33.735Z,103954.91
2023-02-07T10:47:08.022Z,103963.00
2023-02-07T10:48:42.599Z,103964.16
2023-02-07T10:50:28.213Z,103964.16
2023-02-07T10:52:30.822Z,103957.66
2023-02-07T10:54:04.664Z,103954.00
2023-02-07T10:55:46.700Z,103951.03
2023-02-07T10:57:23.446Z,103957.72
2023-02-07T10:59:13.786Z,103952.34
2023-02-07T11:00:55.925Z,103944.97
2023-02-07T11:02:37.755Z,103946.34
2023-02-07T11:04:36.364Z,103950.75
2023-02-07T11:06:10.550Z,103943.97
2023-02-07T11:07:59.559Z,103948.56
2023-02-07T11:09:38.138Z,103940.97
2023-02-07T11:11:37.218Z,103938.38
2023-02-07T11:13:27.867Z,103936.28
2023-02-07T11:15:05.487Z,103941.66
2023-02-07T11:16:38.008Z,103933.69
2023-02-07T11:18:45.584Z,103933.00
2023-02-07T11:20:39.136Z,103939.75
2023-02-07T11:22:18.796Z,103931.59
2023-02-07T11:23:53.210Z,103934.09
2023-02-07T11:25:31.021Z,103927.78
2023-02-07T11:27:22.365Z,103938.38
2023-02-07T11:29:02.511Z,103932.81
2023-02-07T11:30:37.305Z,103942.19
2023-02-07T11:32:14.789Z,103931.38
2023-02-07T11:33:49.397Z,103934.69
2023-02-07T11:35:29.083Z,103930.38
2023-02-07T11:52:48.799Z,103919.31
2023-02-07T11:53:36.727Z,103937.38
2023-02-07T11:54:15.099Z,103930.91
2023-02-07T11:55:51.510Z,103927.03
2023-02-07T11:57:25.076Z,103914.84
2023-02-07T11:58:57.168Z,103918.53
2023-02-07T12:00:44.838Z,103916.25
2023-02-07T12:02:35.610Z,103915.03
2023-02-07T12:04:23.863Z,103914.41
2023-02-07T12:06:06.753Z,103914.09
2023-02-07T12:08:08.042Z,103912.16
2023-02-07T12:20:55.406Z,103912.16
2023-02-07T12:22:53.212Z,103913.44
2023-02-07T12:24:59.465Z,103905.22
2023-02-07T15:54:53.845Z,103831.50
2023-02-07T15:56:52.502Z,103834.66
2023-02-07T15:58:38.279Z,103832.78
2023-02-07T16:00:24.961Z,103832.97
2023-02-07T16:02:24.318Z,103833.69
2023-02-07T16:04:01.101Z,103832.59
2023-02-07T16:05:37.882Z,103838.28
2023-02-07T16:07:18.366Z,103837.41
2023-02-07T16:08:57.605Z,103839.00
2023-02-07T16:10:38.657Z,103843.47
2023-02-07T16:22:31.985Z,103829.41
2023-02-07T16:24:43.833Z,103839.22
2023-02-07T16:26:40.377Z,103834.72
2023-02-07T16:29:18.866Z,103837.13
2023-02-07T16:30:56.383Z,103831.03
2023-02-07T16:32:35.734Z,103838.03
2023-02-07T16:34:59.591Z,103843.91
2023-02-07T16:37:09.794Z,103839.22
2023-02-07T16:49:41.023Z,103852.78
2023-02-07T16:56:00.231Z,103862.44
2023-02-07T17:10:05.282Z,103861.50
2023-02-07T17:15:09.704Z,103887.84
2023-02-07T17:16:52.015Z,103887.06
2023-02-07T17:37:55.946Z,103897.34
2023-02-07T17:39:13.281Z,103909.94
2023-02-07T17:42:10.821Z,103904.66
2023-02-07T17:55:21.883Z,103907.25
2023-02-07T17:57:22.922Z,103912.22
2023-02-07T17:59:14.231Z,103908.84
2023-02-07T18:01:43.736Z,103906.13
2023-02-07T18:02:58.821Z,103901.09
2023-02-07T18:05:13.984Z,103905.47
2023-02-07T18:07:52.888Z,103900.97
2023-02-07T18:10:34.739Z,103905.25
2023-02-07T18:12:16.169Z,103904.00
2023-02-07T18:14:20.074Z,103907.94
2023-02-07T18:16:08.508Z,103907.59
2023-02-07T18:17:59.228Z,103908.28
2023-02-07T18:19:50.810Z,103904.31
2023-02-07T18:23:54.735Z,103900.38
2023-02-07T18:25:48.151Z,103902.81
2023-02-07T18:27:20.637Z,103901.16
2023-02-07T18:28:55.644Z,103897.66
2023-02-07T18:37:45.199Z,103893.72
2023-02-07T18:38:07.221Z,103891.69
2023-02-07T18:39:56.936Z,103889.00
2023-02-07T18:41:32.144Z,103895.84
2023-02-07T18:43:07.760Z,103892.91
2023-02-07T18:44:45.081Z,103896.97
2023-02-07T18:46:21.631Z,103901.09
2023-02-07T18:47:54.073Z,103902.00
2023-02-07T18:49:30.751Z,103906.03
2023-02-07T18:51:11.091Z,103902.22
2023-02-07T18:52:43.405Z,103902.22
2023-02-07T18:54:19.456Z,103899.41
2023-02-07T18:55:54.377Z,103900.19
2023-02-07T18:57:30.031Z,103899.94
2023-02-07T18:59:06.596Z,103897.88
2023-02-07T19:00:43.772Z,103898.19
2023-02-07T19:02:16.555Z,103891.78
2023-02-07T19:03:58.417Z,103885.47
2023-02-07T19:05:38.696Z,103887.16
2023-02-07T19:07:18.611Z,103889.75
2023-02-07T19:09:02.660Z,103887.94
2023-02-07T19:10:38.958Z,103887.94
2023-02-07T19:12:11.595Z,103889.81
2023-02-07T19:13:46.095Z,103885.19
2023-02-07T19:15:18.738Z,103887.25
2023-02-07T19:16:58.067Z,103892.16
2023-02-07T19:18:38.326Z,103885.19
2023-02-07T19:20:14.838Z,103883.81
2023-02-07T19:21:50.323Z,103887.19
2023-02-07T19:23:33.338Z,103879.22
2023-02-07T19:25:11.559Z,103883.22
2023-02-07T19:26:44.589Z,103884.25
2023-02-07T19:28:26.946Z,103884.00
2023-02-07T19:30:02.088Z,103881.81
2023-02-07T19:31:39.674Z,103885.06
2023-02-07T19:33:11.809Z,103878.88
2023-02-07T19:34:44.030Z,103877.22
2023-02-07T19:36:17.259Z,103882.91
2023-02-07T19:37:49.525Z,103881.22
2023-02-07T19:39:21.798Z,103879.19
2023-02-07T19:40:57.823Z,103877.50
2023-02-07T19:42:30.028Z,103876.47
2023-02-07T19:44:02.575Z,103880.75
2023-02-07T19:45:34.915Z,103882.53
2023-02-07T19:47:07.108Z,103883.97
2023-02-07T19:48:39.280Z,103882.97
2023-02-07T19:50:11.554Z,103882.59
2023-02-07T19:51:43.819Z,103896.94
2023-02-07T19:53:16.461Z,103887.69
2023-02-07T19:54:48.709Z,103884.44
2023-02-07T19:56:23.145Z,103888.47
2023-02-07T19:57:55.352Z,103880.84
2023-02-07T19:59:27.727Z,103876.34
2023-02-07T20:00:59.920Z,103886.00
2023-02-07T20:02:31.889Z,103879.94
2023-02-07T20:04:04.342Z,103881.13
2023-02-07T20:05:36.505Z,103878.31
2023-02-07T20:07:08.599Z,103881.03
2023-02-07T20:08:41.564Z,103872.50
2023-02-07T20:10:13.429Z,103875.97
2023-02-07T20:11:45.525Z,103877.41
2023-02-07T20:13:17.642Z,103876.28
2023-02-07T20:14:49.808Z,103876.16
2023-02-07T20:16:24.276Z,103872.41
2023-02-07T20:17:56.997Z,103875.88
2023-02-07T20:19:29.159Z,103873.56
2023-02-07T20:21:11.387Z,103871.75
2023-02-07T20:22:43.898Z,103872.63
2023-02-07T20:24:16.023Z,103881.16
2023-02-07T20:25:48.342Z,103873.94
2023-02-07T20:27:20.454Z,103875.38
2023-02-07T20:28:52.709Z,103873.69
2023-02-07T20:30:24.926Z,103877.59
2023-02-07T20:31:57.118Z,103875.00
2023-02-07T20:33:30.238Z,103875.00
2023-02-07T20:35:02.485Z,103868.59
2023-02-07T20:36:41.035Z,103872.72
2023-02-07T20:38:13.131Z,103872.09
2023-02-07T20:39:45.226Z,103866.28
2023-02-07T20:41:29.490Z,103870.66
2023-02-07T20:43:02.135Z,103868.88
2023-02-07T20:44:34.850Z,103861.91
2023-02-07T20:46:09.120Z,103867.97
2023-02-07T20:47:41.147Z,103861.66
2023-02-07T20:49:16.820Z,103866.16
2023-02-07T20:50:57.541Z,103859.88
2023-02-07T20:52:30.174Z,103855.50
2023-02-07T20:54:04.043Z,103852.91
2023-02-07T20:55:36.935Z,103858.47
2023-02-07T20:57:11.099Z,103864.28
2023-02-07T20:58:47.053Z,103864.81
2023-02-07T21:00:23.477Z,103863.53
2023-02-07T21:01:58.259Z,103868.16
2023-02-07T21:03:32.824Z,103872.28
2023-02-07T21:05:08.387Z,103867.91
2023-02-07T21:06:42.840Z,103869.69
2023-02-07T21:08:15.069Z,103859.94
2023-02-07T21:09:47.439Z,103864.78
2023-02-07T21:11:25.476Z,103865.84
2023-02-07T21:12:59.681Z,103867.78
2023-02-07T21:14:33.561Z,103868.69
2023-02-07T21:16:07.219Z,103859.94
2023-02-07T21:17:39.316Z,103862.09
2023-02-07T21:19:11.820Z,103862.09
2023-02-07T21:20:43.928Z,103866.47
2023-02-07T21:22:16.080Z,103864.78
2023-02-07T21:23:48.251Z,103861.44
2023-02-07T21:25:20.408Z,103859.63
2023-02-07T21:26:53.756Z,103856.03
2023-02-07T21:28:25.885Z,103858.63
2023-02-07T21:29:58.109Z,103855.78
2023-02-07T21:31:31.236Z,103851.94
2023-02-07T21:33:04.891Z,103857.84
2023-02-07T21:34:37.395Z,103864.44
2023-02-07T21:36:13.825Z,103858.91
2023-02-07T21:37:46.039Z,103860.97
2023-02-07T21:39:18.266Z,103864.06
2023-02-07T21:40:50.653Z,103862.25
2023-02-07T21:42:22.889Z,103860.72
2023-02-07T21:43:55.762Z,103864.06
2023-02-07T21:45:28.968Z,103865.09
2023-02-07T21:47:01.106Z,103867.41
2023-02-07T21:48:36.015Z,103870.75
2023-02-07T21:50:09.275Z,103875.91
2023-02-07T21:51:42.613Z,103874.09
2023-02-07T21:53:15.034Z,103870.50
2023-02-07T21:54:47.167Z,103869.47
2023-02-07T21:56:21.556Z,103866.78
2023-02-07T21:57:53.734Z,103872.03
2023-02-07T21:59:26.269Z,103860.06
2023-02-07T22:01:08.722Z,103867.66
2023-02-07T22:02:41.095Z,103859.69
2023-02-07T22:04:14.430Z,103862.91
2023-02-07T22:05:46.713Z,103861.88
2023-02-07T22:07:18.865Z,103872.81
2023-02-07T22:08:56.432Z,103871.91
2023-02-07T22:10:28.681Z,103862.66
2023-02-07T22:12:00.687Z,103863.13
2023-02-07T22:13:33.560Z,103861.50
2023-02-07T22:15:05.623Z,103860.72
2023-02-07T22:16:37.723Z,103860.44
2023-02-07T22:18:09.816Z,103858.63
2023-02-07T22:19:41.991Z,103849.00
2023-02-07T22:21:17.078Z,103843.97
2023-02-07T22:22:49.270Z,103849.13
2023-02-07T22:24:21.508Z,103850.00
2023-02-07T22:25:53.564Z,103852.72
2023-02-07T22:27:27.677Z,103850.91
2023-02-07T22:28:59.826Z,103857.09
2023-02-07T22:30:31.971Z,103855.59
2023-02-07T22:32:04.240Z,103856.34
2023-02-07T22:33:36.412Z,103858.00
2023-02-07T22:35:08.730Z,103850.91
2023-02-07T22:36:43.361Z,103854.13
2023-02-07T22:38:15.450Z,103857.59
2023-02-07T22:39:49.611Z,103845.25
2023-02-07T22:41:24.868Z,103855.41
2023-02-07T22:42:57.257Z,103839.72
2023-02-07T22:44:29.323Z,103845.50
2023-02-07T22:46:09.233Z,103846.28
2023-02-07T22:47:41.376Z,103853.22
2023-02-07T22:49:13.426Z,103849.63
2023-02-07T22:50:45.507Z,103859.66
2023-02-07T22:52:17.801Z,103850.91
2023-02-07T22:53:52.894Z,103847.44
2023-02-07T22:55:25.873Z,103852.31
2023-02-07T22:56:57.826Z,103858.63
2023-02-07T22:58:29.912Z,103854.50
2023-02-07T23:00:01.963Z,103850.13
2023-02-07T23:01:36.874Z,103850.00
2023-02-07T23:03:09.108Z,103854.50
2023-02-07T23:04:41.191Z,103857.06
2023-02-07T23:06:13.374Z,103848.34
2023-02-07T23:07:45.618Z,103853.34
2023-02-07T23:09:17.899Z,103853.47
2023-02-07T23:10:49.962Z,103859.53
2023-02-07T23:12:22.254Z,103861.19
2023-02-07T23:13:54.799Z,103861.69
2023-02-07T23:15:27.373Z,103867.34
2023-02-07T23:16:59.622Z,103866.44
2023-02-07T23:18:31.677Z,103869.78
2023-02-07T23:20:04.249Z,103876.72
2023-02-07T23:21:36.447Z,103870.06
2023-02-07T23:23:08.634Z,103872.50
2023-02-07T23:24:40.740Z,103870.81
2023-02-07T23:26:15.351Z,103863.75
2023-02-07T23:27:47.624Z,103865.41
2023-02-07T23:29:20.315Z,103868.63
2023-02-07T23:30:52.469Z,103869.53
2023-02-07T23:32:24.637Z,103870.28
2023-02-07T23:33:56.850Z,103870.94
2023-02-07T23:35:28.948Z,103865.03
2023-02-07T23:37:01.002Z,103865.78
2023-02-07T23:38:33.682Z,103867.16
2023-02-07T23:40:06.198Z,103865.50
2023-02-07T23:41:38.580Z,103866.25
2023-02-07T23:43:10.646Z,103864.47
2023-02-07T23:44:42.837Z,103863.44
2023-02-07T23:46:16.167Z,103856.63
2023-02-07T23:47:48.443Z,103864.47
2023-02-07T23:49:20.516Z,103862.91
2023-02-07T23:50:54.612Z,103866.44
2023-02-07T23:52:26.593Z,103858.56
2023-02-07T23:53:58.666Z,103852.63
2023-02-07T23:55:30.746Z,103854.88
2023-02-07T23:57:02.890Z,103856.28
2023-02-07T23:58:34.989Z,103857.72
